Time;durP1;ratioP1;P1;durP2;ratioP2;P2;SDS_P1;SDS_P2;PMS_P1;PMS_P2;Temp;Humidity;BMP_temperature;BMP_pressure;BME280_temperature;BME280_humidity;BME280_pressure;Samples;Min_cycle;Max_cycle;Signal;HPM_P1;HPM_P2
2023/07/17 00:00:17;;;;;;;7.10;4.10;;;;;;;22.39;66.77;100656.02;105559;1268;100001;-80
2023/07/17 00:03:24;;;;;;;4.40;3.60;;;;;;;22.40;66.80;100660.50;105677;1272;102049;-80
2023/07/17 00:06:09;;;;;;;4.50;3.70;;;;;;;22.38;67.17;100662.23;105626;1267;97824;-81
2023/07/17 00:08:54;;;;;;;4.70;3.40;;;;;;;22.37;67.33;100662.12;105456;1268;96611;-80
2023/07/17 00:11:40;;;;;;;4.30;3.20;;;;;;;22.39;67.48;100659.78;105524;1271;98306;-80
2023/07/17 00:14:25;;;;;;;5.00;3.70;;;;;;;22.41;67.31;100660.23;105751;1268;101302;-81
2023/07/17 00:17:10;;;;;;;4.70;3.50;;;;;;;22.43;67.32;100661.13;105589;1271;99174;-81
2023/07/17 00:19:57;;;;;;;3.70;3.40;;;;;;;22.45;67.28;100659.65;105712;1273;97757;-80
2023/07/17 00:22:42;;;;;;;5.10;3.50;;;;;;;22.47;67.50;100654.87;105745;1268;96996;-79
2023/07/17 00:25:28;;;;;;;3.80;3.30;;;;;;;22.46;67.64;100654.81;105806;1267;96635;-79
2023/07/17 00:28:13;;;;;;;6.80;3.60;;;;;;;22.43;67.70;100664.06;105580;1274;100127;-79
2023/07/17 00:30:59;;;;;;;5.50;3.70;;;;;;;22.43;67.75;100668.50;105579;1270;99818;-80
2023/07/17 00:33:44;;;;;;;5.00;3.40;;;;;;;22.44;68.00;100666.04;105505;1268;97786;-80
2023/07/17 00:36:30;;;;;;;4.30;3.60;;;;;;;22.42;67.95;100661.56;105645;1268;96750;-80
2023/07/17 00:39:15;;;;;;;6.20;3.60;;;;;;;22.34;68.06;100658.55;104979;1267;97072;-79
2023/07/17 00:42:01;;;;;;;3.90;3.60;;;;;;;22.22;68.17;100654.63;104934;1268;100002;-80
2023/07/17 00:44:47;;;;;;;3.90;3.50;;;;;;;22.08;68.52;100654.95;105160;1273;100464;-80
2023/07/17 00:47:33;;;;;;;3.60;3.30;;;;;;;21.95;68.85;100653.39;105097;1272;97755;-82
2023/07/17 00:50:18;;;;;;;4.90;3.40;;;;;;;21.82;69.21;100646.65;105646;1268;96625;-81
2023/07/17 00:53:06;;;;;;;4.60;3.10;;;;;;;21.72;69.36;100644.14;105451;1271;97146;-81
2023/07/17 00:55:51;;;;;;;5.60;3.70;;;;;;;21.66;69.61;100644.14;105450;1275;101289;-81
2023/07/17 00:58:37;;;;;;;8.00;3.60;;;;;;;21.62;69.93;100638.48;105515;1267;99775;-81
2023/07/17 01:01:23;;;;;;;4.50;3.30;;;;;;;21.57;70.00;100636.43;105652;1272;99506;-80
2023/07/17 01:04:09;;;;;;;5.30;3.50;;;;;;;21.54;70.05;100632.41;105653;1272;98048;-80
2023/07/17 01:06:54;;;;;;;3.70;3.30;;;;;;;21.52;70.13;100630.55;105034;1276;96695;-80
2023/07/17 01:09:40;;;;;;;3.90;3.30;;;;;;;21.47;70.49;100630.33;105579;1267;100135;-80
2023/07/17 01:12:27;;;;;;;4.50;3.30;;;;;;;21.41;71.08;100628.09;105624;1267;99234;-80
2023/07/17 01:15:13;;;;;;;7.10;5.00;;;;;;;21.34;71.17;100632.28;105590;1268;97759;-81
2023/07/17 01:17:58;;;;;;;5.80;3.80;;;;;;;21.28;71.15;100628.98;105615;1267;97963;-80
2023/07/17 01:20:45;;;;;;;4.20;3.80;;;;;;;21.23;71.62;100625.83;105727;1271;98333;-81
2023/07/17 01:23:31;;;;;;;6.60;4.00;;;;;;;21.17;71.74;100623.58;105484;1268;100090;-81
2023/07/17 01:26:18;;;;;;;6.00;3.60;;;;;;;21.09;71.77;100623.64;105720;1274;99094;-80
2023/07/17 01:29:04;;;;;;;4.70;3.90;;;;;;;21.01;72.00;100629.58;105517;1267;98996;-81
2023/07/17 01:31:50;;;;;;;3.90;3.30;;;;;;;20.96;72.43;100631.20;105596;1274;97772;-80
2023/07/17 01:34:36;;;;;;;4.20;3.30;;;;;;;20.91;72.61;100635.86;105593;1268;98332;-81
2023/07/17 01:37:21;;;;;;;4.60;3.90;;;;;;;20.84;72.69;100632.40;105662;1268;101377;-81
2023/07/17 01:40:08;;;;;;;4.10;3.70;;;;;;;20.80;72.89;100633.87;105642;1268;100476;-80
2023/07/17 01:42:54;;;;;;;3.80;3.50;;;;;;;20.78;72.91;100635.38;105710;1270;97745;-81
2023/07/17 01:45:41;;;;;;;6.20;3.90;;;;;;;20.82;72.97;100633.91;105654;1268;97888;-80
2023/07/17 01:48:27;;;;;;;5.40;3.60;;;;;;;20.86;73.28;100636.13;105586;1272;97077;-80
2023/07/17 01:51:12;;;;;;;5.50;4.10;;;;;;;20.84;73.22;100645.03;105233;1268;100121;-82
2023/07/17 01:53:57;;;;;;;4.70;4.30;;;;;;;20.77;73.34;100650.45;105571;1268;99104;-81
2023/07/17 01:56:43;;;;;;;5.40;4.30;;;;;;;20.73;73.37;100651.82;105728;1268;99165;-80
2023/07/17 01:59:30;;;;;;;6.90;4.00;;;;;;;20.72;73.41;100649.83;105530;1268;96647;-81
2023/07/17 02:02:15;;;;;;;6.60;4.20;;;;;;;20.73;73.61;100650.30;105501;1274;97184;-80
2023/07/17 02:05:01;;;;;;;4.00;3.50;;;;;;;20.76;73.57;100650.59;105851;1272;101036;-81
2023/07/17 02:07:46;;;;;;;5.30;4.30;;;;;;;20.74;73.60;100650.30;105748;1271;99192;-81
2023/07/17 02:10:33;;;;;;;4.00;3.70;;;;;;;20.76;73.64;100653.27;105594;1271;97995;-80
2023/07/17 02:13:18;;;;;;;4.80;4.00;;;;;;;20.76;73.96;100655.50;105719;1268;97949;-80
2023/07/17 02:16:05;;;;;;;4.30;3.90;;;;;;;20.72;74.06;100657.56;105575;1267;97834;-81
2023/07/17 02:18:50;;;;;;;6.60;3.90;;;;;;;20.69;74.03;100661.27;105661;1273;102704;-80
2023/07/17 02:21:35;;;;;;;4.10;3.70;;;;;;;20.68;74.08;100665.30;105722;1268;100133;-80
2023/07/17 02:24:21;;;;;;;4.60;4.10;;;;;;;20.69;74.05;100664.45;105799;1268;98664;-80
2023/07/17 02:27:07;;;;;;;7.10;4.50;;;;;;;20.69;74.22;100668.36;105533;1268;97997;-81
2023/07/17 02:29:54;;;;;;;4.80;4.40;;;;;;;20.68;74.13;100667.69;105800;1273;98434;-82
2023/07/17 02:32:39;;;;;;;4.20;3.70;;;;;;;20.66;74.34;100662.94;105867;1268;102857;-82
2023/07/17 02:35:25;;;;;;;5.80;4.90;;;;;;;20.64;74.36;100670.79;105531;1273;99170;-80
2023/07/17 02:38:10;;;;;;;4.50;4.10;;;;;;;20.64;74.50;100668.34;105729;1272;108117;-81
2023/07/17 02:40:55;;;;;;;7.00;4.50;;;;;;;20.61;74.93;100669.77;105626;1269;98750;-81
2023/07/17 02:43:41;;;;;;;4.60;4.60;;;;;;;20.56;74.80;100673.89;105717;1272;96389;-81
2023/07/17 02:46:26;;;;;;;4.40;4.00;;;;;;;20.52;74.70;100676.39;105706;1268;101373;-81
2023/07/17 02:49:13;;;;;;;7.40;5.30;;;;;;;20.53;74.91;100677.00;105669;1268;101018;-81
2023/07/17 02:51:59;;;;;;;5.50;4.70;;;;;;;20.56;75.47;100677.42;107475;1270;97748;-81
2023/07/17 02:54:44;;;;;;;6.00;5.00;;;;;;;20.57;75.84;100674.34;105458;1268;99180;-81
2023/07/17 02:57:33;;;;;;;6.00;4.90;;;;;;;20.55;75.91;100675.57;105623;1273;97987;-81
2023/07/17 03:00:19;;;;;;;7.60;5.20;;;;;;;20.52;76.21;100675.46;105751;1273;101476;-81
2023/07/17 03:03:07;;;;;;;7.70;4.80;;;;;;;20.51;76.34;100677.29;105604;1268;99213;-80
2023/07/17 03:05:56;;;;;;;9.10;4.90;;;;;;;20.51;76.63;100685.25;105556;1268;99620;-80
2023/07/17 03:08:42;;;;;;;5.80;5.00;;;;;;;20.54;76.98;100696.02;105676;1273;98007;-81
2023/07/17 03:11:28;;;;;;;5.80;4.50;;;;;;;20.58;77.33;100698.37;105782;1268;97905;-82
2023/07/17 03:14:14;;;;;;;6.30;5.10;;;;;;;20.63;77.60;100700.34;105564;1268;103165;-82
2023/07/17 03:16:59;;;;;;;9.20;5.40;;;;;;;20.66;77.80;100699.24;105435;1273;100098;-82
2023/07/17 03:19:45;;;;;;;7.10;4.80;;;;;;;20.70;77.99;100698.80;105451;1273;99481;-79
2023/07/17 03:22:31;;;;;;;8.10;5.30;;;;;;;20.74;78.12;100696.69;105557;1268;97982;-80
2023/07/17 03:25:17;;;;;;;5.60;4.70;;;;;;;20.77;78.37;100691.17;105553;1271;98391;-81
2023/07/17 03:28:02;;;;;;;6.40;4.80;;;;;;;20.81;78.41;100690.02;105540;1274;102368;-81
2023/07/17 03:30:48;;;;;;;8.10;4.60;;;;;;;20.85;78.72;100700.38;105709;1268;100374;-80
2023/07/17 03:33:34;;;;;;;7.10;5.00;;;;;;;20.88;78.70;100694.33;105600;1274;99037;-80
2023/07/17 03:36:19;;;;;;;11.20;5.60;;;;;;;20.93;78.90;100686.39;105500;1273;97879;-81
2023/07/17 03:39:05;;;;;;;5.40;4.80;;;;;;;20.97;79.15;100683.39;105583;1273;98627;-80
2023/07/17 03:41:51;;;;;;;5.80;5.00;;;;;;;21.00;79.32;100689.95;105576;1271;101396;-80
2023/07/17 03:47:35;;;;;;;5.70;5.00;;;;;;;21.00;79.79;100689.76;103477;1290;637492;-82
2023/07/17 03:50:21;;;;;;;6.50;5.70;;;;;;;20.93;79.60;100692.39;105733;1267;95903;-81
2023/07/17 03:53:07;;;;;;;6.10;5.50;;;;;;;20.87;79.34;100693.27;105627;1267;97489;-79
2023/07/17 03:55:53;;;;;;;6.50;4.90;;;;;;;20.81;79.54;100694.23;105995;1259;98113;-80
2023/07/17 03:58:39;;;;;;;5.60;4.90;;;;;;;20.78;79.62;100697.39;106067;1257;99165;-81
2023/07/17 04:01:25;;;;;;;5.40;4.40;;;;;;;20.77;79.60;100701.46;106621;1254;174954;-80
2023/07/17 04:04:10;;;;;;;4.20;3.80;;;;;;;20.77;80.00;100697.59;106560;1254;96750;-80
2023/07/17 04:06:56;;;;;;;5.20;4.60;;;;;;;20.78;80.45;100694.23;106889;1253;95879;-82
2023/07/17 04:09:42;;;;;;;5.50;4.90;;;;;;;20.79;80.78;100700.77;106790;1251;97709;-82
2023/07/17 04:12:27;;;;;;;4.70;4.20;;;;;;;20.82;80.93;100700.55;106671;1256;100417;-79
2023/07/17 04:15:13;;;;;;;5.60;4.90;;;;;;;20.88;81.32;100696.23;106510;1252;97792;-81
2023/07/17 04:17:59;;;;;;;8.30;4.70;;;;;;;20.92;81.54;100697.58;106601;1251;96084;-81
2023/07/17 04:20:45;;;;;;;5.30;4.80;;;;;;;20.94;81.53;100695.98;106701;1257;95969;-81
2023/07/17 04:23:31;;;;;;;6.30;5.00;;;;;;;20.98;81.84;100695.88;106628;1251;98697;-81
2023/07/17 04:26:18;;;;;;;6.00;4.80;;;;;;;21.03;81.74;100695.10;106883;1256;99062;-82
2023/07/17 04:29:06;;;;;;;6.50;5.10;;;;;;;21.11;81.94;100696.61;106932;1253;97737;-82
2023/07/17 04:31:52;;;;;;;7.30;5.30;;;;;;;21.20;81.76;100702.72;106798;1250;95832;-80
2023/07/17 04:34:37;;;;;;;6.80;5.60;;;;;;;21.28;81.83;100711.36;106857;1256;95754;-81
2023/07/17 04:37:23;;;;;;;5.90;5.10;;;;;;;21.36;81.86;100714.19;106710;1256;98630;-80
2023/07/17 04:40:09;;;;;;;7.90;6.50;;;;;;;21.44;81.97;100716.10;106780;1251;99232;-80
2023/07/17 04:42:55;;;;;;;9.10;7.00;;;;;;;21.52;82.33;100727.75;107033;1251;98444;-80
2023/07/17 04:45:42;;;;;;;7.30;6.30;;;;;;;21.56;82.68;100731.45;106704;1251;95905;-81
2023/07/17 04:48:30;;;;;;;11.90;7.30;;;;;;;21.61;82.52;100735.36;106756;1251;95871;-81
2023/07/17 04:51:16;;;;;;;9.00;6.20;;;;;;;21.66;82.80;100742.39;106912;1253;98762;-83
2023/07/17 04:54:03;;;;;;;7.40;6.70;;;;;;;21.72;82.44;100738.80;106952;1251;100426;-82
2023/07/17 04:56:49;;;;;;;6.70;5.30;;;;;;;21.83;82.37;100726.07;106555;1257;99246;-85
2023/07/17 04:59:38;;;;;;;7.30;6.10;;;;;;;21.96;81.96;100729.87;106580;1254;95823;-83
2023/07/17 05:02:24;;;;;;;9.10;5.30;;;;;;;22.08;81.91;100740.80;106583;1251;97087;-84
2023/07/17 05:05:10;;;;;;;7.60;6.20;;;;;;;22.18;81.27;100750.94;106552;1257;98657;-82
2023/07/17 05:07:56;;;;;;;6.90;5.90;;;;;;;22.22;80.57;100753.36;106572;1253;99630;-83
2023/07/17 05:10:41;;;;;;;8.20;6.00;;;;;;;22.27;80.43;100760.18;106503;1253;97791;-83
2023/07/17 05:13:29;;;;;;;7.10;5.80;;;;;;;22.33;80.26;100766.78;106504;1253;95794;-82
2023/07/17 05:16:15;;;;;;;6.90;5.30;;;;;;;22.40;80.20;100774.54;106498;1251;95864;-83
2023/07/17 05:19:01;;;;;;;8.20;5.70;;;;;;;22.45;80.03;100789.70;106543;1251;99690;-82
2023/07/17 05:21:49;;;;;;;9.10;5.50;;;;;;;22.49;79.77;100793.17;106571;1260;99163;-83
2023/07/17 05:24:35;;;;;;;11.00;6.20;;;;;;;22.51;79.59;100783.98;106484;1251;97787;-81
2023/07/17 05:27:22;;;;;;;6.30;5.00;;;;;;;22.54;79.35;100785.30;106450;1257;95893;-82
2023/07/17 05:30:07;;;;;;;8.60;5.00;;;;;;;22.61;79.57;100776.53;106577;1256;95918;-81
2023/07/17 05:32:53;;;;;;;5.80;4.80;;;;;;;22.67;79.44;100774.67;106655;1251;98711;-80
2023/07/17 05:35:39;;;;;;;8.50;5.00;;;;;;;22.72;79.15;100776.58;106748;1251;99160;-83
2023/07/17 05:38:26;;;;;;;4.80;4.30;;;;;;;22.80;78.78;100771.06;106720;1254;98982;-81
2023/07/17 05:41:12;;;;;;;7.00;4.70;;;;;;;22.87;78.58;100771.44;106645;1251;95832;-82
2023/07/17 05:43:59;;;;;;;5.10;4.60;;;;;;;22.93;78.62;100763.94;106645;1251;95903;-82
2023/07/17 05:46:45;;;;;;;8.70;5.00;;;;;;;22.98;77.95;100759.05;106579;1251;100031;-82
2023/07/17 05:49:31;;;;;;;6.20;4.60;;;;;;;23.03;77.36;100761.92;106552;1251;100469;-82
2023/07/17 05:52:17;;;;;;;7.20;4.50;;;;;;;23.09;77.23;100768.68;106807;1251;98795;-81
2023/07/17 05:55:04;;;;;;;6.80;5.30;;;;;;;23.16;76.73;100761.12;107437;1251;95262;-81
2023/07/17 05:57:49;;;;;;;7.60;5.20;;;;;;;23.20;76.34;100762.07;106486;1257;95850;-83
2023/07/17 06:00:36;;;;;;;5.00;4.50;;;;;;;23.23;75.84;100756.41;106629;1253;100061;-82
2023/07/17 06:03:22;;;;;;;5.60;4.60;;;;;;;23.27;75.10;100754.88;106844;1251;99059;-81
2023/07/17 06:06:07;;;;;;;8.70;4.30;;;;;;;23.32;74.99;100755.91;106469;1251;97776;-82
2023/07/17 06:08:53;;;;;;;4.40;4.00;;;;;;;23.35;75.05;100749.86;106545;1257;96269;-82
2023/07/17 06:11:38;;;;;;;7.40;4.90;;;;;;;23.39;74.90;100749.62;106706;1255;95841;-84
2023/07/17 06:14:24;;;;;;;5.10;4.30;;;;;;;23.49;74.67;100745.72;106981;1251;98793;-82
2023/07/17 06:17:09;;;;;;;5.00;4.60;;;;;;;23.58;74.42;100739.84;106666;1253;99698;-82
2023/07/17 06:19:55;;;;;;;5.20;4.70;;;;;;;23.66;74.46;100734.57;106803;1250;98709;-82
2023/07/17 06:22:40;;;;;;;5.30;4.80;;;;;;;23.74;73.96;100731.23;106795;1251;96773;-82
2023/07/17 06:25:26;;;;;;;6.50;4.30;;;;;;;23.86;73.43;100726.02;106797;1255;96756;-81
2023/07/17 06:28:11;;;;;;;7.00;4.30;;;;;;;23.95;73.00;100726.52;106677;1254;98750;-81
2023/07/17 06:30:58;;;;;;;4.50;4.10;;;;;;;23.98;72.26;100721.83;106735;1250;100712;-81
2023/07/17 06:33:44;;;;;;;4.90;3.90;;;;;;;24.00;71.97;100725.11;106472;1251;99000;-82
2023/07/17 06:36:30;;;;;;;7.30;4.20;;;;;;;24.05;72.57;100726.77;106521;1251;95979;-81
2023/07/17 06:39:16;;;;;;;5.90;4.40;;;;;;;24.11;72.26;100732.75;106663;1251;95906;-81
2023/07/17 06:42:03;;;;;;;8.30;4.20;;;;;;;24.16;72.32;100731.29;106440;1256;100303;-81
2023/07/17 06:44:49;;;;;;;5.40;3.90;;;;;;;24.23;72.56;100730.70;106520;1257;99206;-83
2023/07/17 06:47:35;;;;;;;5.10;4.40;;;;;;;24.26;71.39;100728.45;106681;1251;97701;-82
2023/07/17 06:50:20;;;;;;;4.40;4.00;;;;;;;24.29;71.27;100727.79;106934;1251;96138;-82
2023/07/17 06:53:06;;;;;;;6.30;4.90;;;;;;;24.35;70.93;100723.90;106650;1251;95942;-82
2023/07/17 06:55:59;;;;;;;4.40;3.80;;;;;;;24.41;70.61;100727.24;106587;1251;98465;-82
2023/07/17 06:58:45;;;;;;;6.00;4.50;;;;;;;24.49;70.13;100730.80;107452;1251;101586;-80
2023/07/17 07:01:30;;;;;;;8.00;3.90;;;;;;;24.56;70.20;100729.20;106751;1251;97844;-80
2023/07/17 07:04:16;;;;;;;5.10;4.50;;;;;;;24.63;70.30;100726.23;106761;1251;95909;-81
2023/07/17 07:07:01;;;;;;;4.40;3.90;;;;;;;24.69;69.78;100731.27;106743;1251;95892;-81
2023/07/17 07:09:47;;;;;;;7.90;4.50;;;;;;;24.70;68.36;100736.79;106484;1251;98707;-83
2023/07/17 07:12:32;;;;;;;7.00;3.70;;;;;;;24.72;68.01;100743.09;106706;1257;99157;-81
2023/07/17 07:15:17;;;;;;;5.50;3.90;;;;;;;24.74;68.37;100747.82;106697;1256;97757;-81
2023/07/17 07:18:03;;;;;;;5.10;3.90;;;;;;;24.78;68.54;100746.13;106528;1253;95832;-81
2023/07/17 07:20:53;;;;;;;5.10;4.30;;;;;;;24.82;68.58;100751.17;106563;1259;95861;-82
2023/07/17 07:23:38;;;;;;;6.20;3.90;;;;;;;24.84;68.85;100752.97;106842;1251;100728;-81
2023/07/17 07:26:24;;;;;;;5.70;3.90;;;;;;;24.84;68.28;100760.48;106810;1255;100116;-81
2023/07/17 07:29:10;;;;;;;7.70;3.90;;;;;;;24.80;67.95;100761.30;106794;1251;99164;-81
2023/07/17 07:31:55;;;;;;;6.70;4.10;;;;;;;24.78;68.37;100751.55;106822;1256;95800;-80
2023/07/17 07:34:41;;;;;;;5.60;4.40;;;;;;;24.80;68.14;100751.50;106756;1251;97218;-83
2023/07/17 07:37:26;;;;;;;5.20;4.20;;;;;;;24.84;68.11;100752.81;106708;1251;99437;-80
2023/07/17 07:40:12;;;;;;;5.10;4.10;;;;;;;24.92;68.62;100753.34;106972;1251;99118;-82
2023/07/17 07:42:58;;;;;;;4.70;3.80;;;;;;;24.99;68.60;100754.59;107093;1251;98433;-84
2023/07/17 07:45:43;;;;;;;4.20;3.40;;;;;;;25.07;68.51;100757.53;106948;1251;95876;-82
2023/07/17 07:48:31;;;;;;;7.70;3.80;;;;;;;25.11;68.05;100756.58;106864;1251;96179;-81
2023/07/17 07:51:17;;;;;;;10.10;4.40;;;;;;;25.12;67.49;100750.92;107015;1251;98699;-81
2023/07/17 07:54:03;;;;;;;7.10;3.40;;;;;;;25.18;66.94;100745.04;106818;1253;99264;-82
2023/07/17 07:56:50;;;;;;;4.10;3.30;;;;;;;25.26;66.47;100747.26;106632;1256;98406;-82
2023/07/17 07:59:35;;;;;;;4.60;3.50;;;;;;;25.35;66.52;100746.41;106877;1252;95892;-82
2023/07/17 08:02:21;;;;;;;4.20;3.50;;;;;;;25.38;66.03;100746.99;106822;1256;95950;-81
2023/07/17 08:05:08;;;;;;;7.40;3.70;;;;;;;25.40;66.28;100745.91;106718;1251;98687;-82
2023/07/17 08:07:54;;;;;;;7.80;3.30;;;;;;;25.49;66.60;100743.31;106460;1251;99151;-81
2023/07/17 08:10:39;;;;;;;4.00;3.10;;;;;;;25.64;65.58;100745.48;106596;1251;97730;-82
2023/07/17 08:13:25;;;;;;;5.90;3.10;;;;;;;25.80;65.22;100746.42;106622;1251;95829;-81
2023/07/17 08:16:10;;;;;;;7.30;3.40;;;;;;;25.93;64.88;100747.93;106676;1253;98051;-80
2023/07/17 08:18:55;;;;;;;4.40;3.40;;;;;;;26.06;64.40;100744.52;106867;1251;99112;-81
2023/07/17 08:21:42;;;;;;;6.90;3.50;;;;;;;26.19;64.32;100738.94;106683;1255;100720;-81
2023/07/17 08:24:27;;;;;;;4.70;3.00;;;;;;;26.31;63.41;100739.73;106671;1251;98978;-81
2023/07/17 08:27:13;;;;;;;4.80;3.10;;;;;;;26.43;62.61;100734.85;106870;1254;96851;-81
2023/07/17 08:29:59;;;;;;;5.90;3.50;;;;;;;26.53;61.78;100732.17;106827;1255;98398;-80
2023/07/17 08:32:44;;;;;;;3.30;3.00;;;;;;;26.63;60.80;100723.95;106720;1255;100063;-80
2023/07/17 08:35:30;;;;;;;4.20;3.00;;;;;;;26.75;60.33;100711.48;106696;1255;100373;-81
2023/07/17 08:38:15;;;;;;;5.10;2.90;;;;;;;26.87;59.46;100697.84;106843;1251;97808;-80
2023/07/17 08:41:02;;;;;;;3.40;2.80;;;;;;;26.98;58.88;100697.98;106742;1253;97373;-80
2023/07/17 08:43:51;;;;;;;6.50;3.00;;;;;;;27.09;57.99;100702.80;107016;1256;95916;-81
2023/07/17 08:46:37;;;;;;;5.90;2.70;;;;;;;27.19;56.16;100700.64;106792;1251;100032;-81
2023/07/17 08:49:24;;;;;;;4.70;2.80;;;;;;;27.30;54.75;100692.59;107041;1257;99296;-80
2023/07/17 08:52:11;;;;;;;3.90;2.80;;;;;;;27.40;55.24;100685.72;106495;1256;98869;-80
2023/07/17 08:54:56;;;;;;;4.60;3.60;;;;;;;27.47;55.10;100685.56;106379;1260;97864;-90
2023/07/17 08:57:44;;;;;;;6.40;3.70;;;;;;;27.55;55.33;100686.71;106483;1262;96607;-83
2023/07/17 09:00:31;;;;;;;3.20;2.80;;;;;;;27.62;54.70;100685.09;106511;1256;101375;-84
2023/07/17 09:03:18;;;;;;;3.30;2.70;;;;;;;27.71;55.23;100687.55;106354;1256;100141;-81
2023/07/17 09:06:05;;;;;;;6.40;2.80;;;;;;;27.81;56.15;100688.66;106703;1256;97769;-86
2023/07/17 09:08:52;;;;;;;9.20;3.50;;;;;;;27.91;56.44;100683.38;106446;1262;96604;-86
2023/07/17 09:11:37;;;;;;;5.20;3.40;;;;;;;27.99;55.85;100676.89;106263;1256;96611;-86
2023/07/17 09:14:23;;;;;;;5.60;3.70;;;;;;;28.04;56.27;100674.71;106593;1260;100800;-86
2023/07/17 09:17:11;;;;;;;6.30;2.70;;;;;;;28.12;56.53;100672.09;106496;1256;99163;-86
2023/07/17 09:20:08;;;;;;;3.40;3.00;;;;;;;28.20;55.72;100673.95;106270;1262;99060;-85
2023/07/17 09:22:56;;;;;;;7.10;3.30;;;;;;;28.27;55.73;100678.85;106317;1257;96692;-85
2023/07/17 09:25:44;;;;;;;3.40;3.10;;;;;;;28.34;55.81;100681.27;106338;1256;95840;-84
2023/07/17 09:28:29;;;;;;;4.00;3.40;;;;;;;28.39;55.68;100684.64;106155;1261;101068;-86
2023/07/17 09:31:23;;;;;;;3.30;3.00;;;;;;;28.45;55.34;100681.05;106477;1256;101426;-84
2023/07/17 09:34:13;;;;;;;6.50;2.70;;;;;;;28.52;55.53;100677.63;106510;1261;99556;-85
2023/07/17 09:37:08;;;;;;;2.60;2.40;;;;;;;28.60;55.88;100673.59;106281;1256;96591;-85
2023/07/17 09:39:54;;;;;;;4.40;2.90;;;;;;;28.68;54.99;100671.13;106392;1260;96698;-85
2023/07/17 09:42:42;;;;;;;3.00;2.50;;;;;;;28.73;54.68;100669.44;106478;1261;99858;-85
2023/07/17 09:45:28;;;;;;;3.60;3.20;;;;;;;28.79;54.87;100662.36;106320;1256;100772;-85
2023/07/17 09:48:16;;;;;;;3.40;2.90;;;;;;;28.87;55.13;100661.86;106654;1260;97781;-85
2023/07/17 09:51:03;;;;;;;6.00;2.60;;;;;;;28.94;54.70;100655.05;106401;1256;95876;-85
2023/07/17 09:53:49;;;;;;;2.80;2.50;;;;;;;29.02;55.16;100652.14;106236;1256;96705;-86
2023/07/17 09:56:35;;;;;;;2.70;2.50;;;;;;;29.12;54.58;100650.55;106317;1256;99973;-86
2023/07/17 09:59:24;;;;;;;2.90;2.70;;;;;;;29.13;53.13;100640.98;106302;1256;100457;-86
2023/07/17 10:02:19;;;;;;;3.00;2.30;;;;;;;29.12;52.93;100637.41;106245;1257;97829;-88
2023/07/17 10:05:05;;;;;;;5.00;2.60;;;;;;;29.16;52.72;100632.05;106646;1261;96707;-89
2023/07/17 10:07:58;;;;;;;4.80;2.80;;;;;;;29.25;52.81;100629.01;106681;1256;95843;-90
2023/07/17 10:10:43;;;;;;;4.70;2.70;;;;;;;29.37;53.33;100632.41;106921;1256;99994;-91
2023/07/17 10:13:30;;;;;;;9.70;4.80;;;;;;;29.53;53.06;100637.89;107052;1260;101298;-90
2023/07/17 10:16:18;;;;;;;8.60;3.50;;;;;;;29.63;51.91;100635.23;106988;1257;97734;-88
2023/07/17 10:19:03;;;;;;;3.10;2.80;;;;;;;29.68;51.29;100642.00;106896;1256;96618;-88
2023/07/17 10:21:57;;;;;;;5.20;3.50;;;;;;;29.75;51.02;100635.06;107111;1256;96468;-87
2023/07/17 10:24:45;;;;;;;3.60;2.50;;;;;;;29.80;50.90;100630.00;106877;1262;100072;-91
2023/07/17 10:27:39;;;;;;;5.00;2.40;;;;;;;29.87;50.95;100623.94;106794;1256;99660;-89
2023/07/17 10:30:36;;;;;;;7.40;3.80;;;;;;;29.95;51.32;100614.04;106913;1256;99173;-88
2023/07/17 10:33:23;;;;;;;5.10;3.20;;;;;;;30.09;50.62;100614.14;106652;1260;96436;-89
2023/07/17 10:36:13;;;;;;;5.10;2.70;;;;;;;30.17;49.38;100612.91;106667;1255;96130;-89
2023/07/17 10:38:59;;;;;;;6.60;2.90;;;;;;;30.22;49.00;100607.31;106852;1256;101176;-90
2023/07/17 10:41:52;;;;;;;2.90;2.50;;;;;;;30.24;48.66;100606.61;106974;1260;100366;-90
2023/07/17 10:44:40;;;;;;;2.60;2.20;;;;;;;30.23;48.13;100610.15;106791;1256;106863;-88
2023/07/17 10:47:26;;;;;;;4.40;2.50;;;;;;;30.27;48.02;100602.20;106915;1256;96708;-90
2023/07/17 10:50:12;;;;;;;3.90;2.10;;;;;;;30.32;48.01;100596.11;106547;1256;96447;-88
2023/07/17 10:53:05;;;;;;;6.40;2.60;;;;;;;30.35;47.42;100592.46;106438;1257;101533;-90
2023/07/17 10:55:51;;;;;;;7.20;2.40;;;;;;;30.41;47.18;100589.86;106606;1256;99240;-89
2023/07/17 10:58:36;;;;;;;5.70;2.60;;;;;;;30.51;47.99;100581.17;107070;1256;97802;-89
2023/07/17 11:01:23;;;;;;;4.80;3.50;;;;;;;30.58;47.94;100581.98;106851;1256;96602;-90
2023/07/17 11:04:17;;;;;;;3.50;3.00;;;;;;;30.56;47.13;100586.34;106788;1260;97310;-91
2023/07/17 11:07:09;;;;;;;8.30;4.20;;;;;;;30.51;46.94;100592.23;106719;1260;101237;-87
2023/07/17 11:09:55;;;;;;;3.10;2.70;;;;;;;30.42;46.07;100593.30;106462;1256;100317;-89
2023/07/17 11:12:42;;;;;;;9.70;4.30;;;;;;;30.27;45.21;100594.25;106743;1256;97601;-88
2023/07/17 11:15:31;;;;;;;9.10;5.80;;;;;;;30.15;45.16;100594.63;106640;1256;96593;-86
2023/07/17 11:18:17;;;;;;;7.00;3.10;;;;;;;30.07;45.21;100594.84;106789;1256;96516;-91
2023/07/17 11:21:08;;;;;;;7.40;4.00;;;;;;;30.04;45.27;100589.23;106647;1256;100053;-89
2023/07/17 11:23:56;;;;;;;7.60;2.80;;;;;;;30.05;45.65;100585.27;106698;1256;99295;-88
2023/07/17 11:26:42;;;;;;;6.20;2.60;;;;;;;30.12;45.93;100578.67;106578;1260;99103;-85
2023/07/17 11:29:30;;;;;;;6.90;2.80;;;;;;;30.19;46.03;100573.18;106994;1261;96585;-89
2023/07/17 11:32:20;;;;;;;6.20;2.70;;;;;;;30.26;46.06;100571.77;106433;1256;97203;-90
2023/07/17 11:35:08;;;;;;;4.30;2.50;;;;;;;30.38;45.69;100565.89;106367;1256;100061;-92
2023/07/17 11:38:03;;;;;;;3.10;2.60;;;;;;;30.45;45.04;100563.15;106489;1256;100524;-90
2023/07/17 11:40:58;;;;;;;5.10;2.60;;;;;;;30.51;44.85;100559.84;106496;1262;99589;-89
2023/07/17 11:43:55;;;;;;;7.50;2.60;;;;;;;30.57;44.94;100561.89;106619;1257;95988;-90
2023/07/17 11:46:42;;;;;;;2.20;2.00;;;;;;;30.68;44.91;100566.91;106396;1256;96536;-88
2023/07/17 11:49:42;;;;;;;4.50;2.30;;;;;;;30.78;44.78;100566.39;106685;1256;100069;-90
2023/07/17 11:52:43;;;;;;;3.10;2.50;;;;;;;30.81;44.24;100572.85;106519;1259;100338;-93
2023/07/17 11:56:01;;;;;;;3.70;2.20;;;;;;;30.77;43.84;100579.91;106454;1259;99517;-82
2023/07/17 11:58:52;;;;;;;5.20;2.80;;;;;;;30.73;43.42;100577.09;106349;1266;96533;-81
2023/07/17 12:01:37;;;;;;;4.30;2.60;;;;;;;30.72;43.64;100577.02;107515;1259;95888;-83
2023/07/17 12:04:32;;;;;;;4.40;2.70;;;;;;;30.68;43.59;100581.13;106291;1259;100341;-81
2023/07/17 12:07:18;;;;;;;3.90;2.70;;;;;;;30.57;43.20;100583.11;106434;1259;100993;-83
2023/07/17 12:10:04;;;;;;;5.40;2.60;;;;;;;30.55;43.84;100578.36;106252;1259;97777;-83
2023/07/17 12:12:50;;;;;;;3.90;2.90;;;;;;;30.57;43.43;100575.30;106158;1257;97980;-82
2023/07/17 12:15:37;;;;;;;4.00;2.20;;;;;;;30.59;43.31;100569.73;106187;1258;96765;-83
2023/07/17 12:18:23;;;;;;;4.60;2.50;;;;;;;30.66;43.97;100572.73;106175;1258;100032;-82
2023/07/17 12:21:08;;;;;;;4.40;2.80;;;;;;;30.71;43.65;100565.98;106348;1259;99246;-82
2023/07/17 12:23:54;;;;;;;3.10;2.50;;;;;;;30.72;42.86;100568.46;106135;1257;98964;-83
2023/07/17 12:26:40;;;;;;;5.10;2.50;;;;;;;30.70;42.58;100565.15;106246;1258;96644;-82
2023/07/17 12:29:27;;;;;;;6.00;2.30;;;;;;;30.69;42.50;100562.34;106244;1259;96611;-83
2023/07/17 12:32:12;;;;;;;2.70;2.50;;;;;;;30.75;42.55;100553.99;106199;1262;100051;-83
2023/07/17 12:34:58;;;;;;;4.40;2.40;;;;;;;30.75;42.03;100547.67;106361;1259;99908;-82
2023/07/17 12:37:43;;;;;;;5.80;2.50;;;;;;;30.65;41.61;100546.26;106152;1263;98840;-82
2023/07/17 12:40:29;;;;;;;6.10;2.70;;;;;;;30.53;41.77;100545.99;106332;1257;96543;-82
2023/07/17 12:43:15;;;;;;;4.90;2.60;;;;;;;30.43;41.81;100548.89;106100;1259;96493;-82
2023/07/17 12:46:01;;;;;;;4.50;2.60;;;;;;;30.36;42.08;100555.00;106382;1263;100037;-81